Terminal Aerodrome Forecast
Issued by NWS

Home | Current Version | Previous Version | Text Only | Print | Product List | Glossary On
Versions: 1 2 3 4 5 6 7 8 9 10 11 12
491
FTUS45 KABQ 272333
TAFFMN
TAF
KFMN 272333Z 2800/2824 28018G28KT P6SM SCT080
     FM280200 07008KT P6SM SCT120
     FM280600 09006KT P6SM FEW120
     FM281600 VRB06KT P6SM SKC
     FM282000 27008KT P6SM SCT090=

USA.gov is the U.S. government's official web portal to all federal, state and local government web resources and services.